Accueil
METAR-TAF:

METAR-TAF

Aéroports :

Cranfield, Angleterre

latitude: 52-04N, longitude: 000-37W, altitude: 111 m

Observation

Le bulletin a été fait il y a 11 heures et 14 minutes, à 16:20 UTC
Vent 7 kt de est/nord-est
Température 11°C
Humidité 100%
Pression 1010 hPa
Visibilité: 2000 m
Ciel couvert à une hauteur de 200 ft
brume

METAR: EGTC 181620Z 07007KT 2000 BR OVC002 11/11 Q1010

Heure: 04:34 (03:34 UTC)

Prévision

Le bulletin a été fait il y a 13 heures et 36 minutes, à 13:58 UTC
Prévision valable du 18 à 15 UTC au 18 à 18 UTC
Vent 8 kt de est/nord-est
Visibilité 10 km ou plus
Nuages fragmentés à une hauteur de 700 ft
Temporairement
du 18 à 15 UTC au 18 à 18 UTC
Visibilité: 4000 m
pluie, bruine, brume
Probabilité 40% :
Temporairement
du 18 à 15 UTC au 18 à 18 UTC
Nuages fragmentés à une hauteur de 400 ft

TAF: EGTC 181358Z 1815/1818 06008KT 9999 BKN007 TEMPO 1815/1818 4000 RADZ BR PROB40 TEMPO 1815/1818 BKN004

Observations et prévisions météorologiques de plus de 4000 aéroports (messages METAR et TAF).

Les stations disponibles sont représentées par des disques jaunes et rouges sur la carte.

Passer la souris dessus pour voir le nom de la station.

Cliquer dessus pour voir les observations et prévisions météorologiques.

Pour changer de carte: cliquez sur les boutons verts avec une croix noire pour zoomer, sur le bouton vert avec un tiret pour effectuer un zoom arrière, ou sur les flèches vertes pour les cartes adjacentes.


METAR-TAF: